This is the latest recevied weather packets stored in our database for station/object OK3MS-5. If no packets are shown the sender has not sent any weather packets the latest 10 day(s).
| Time | Temp. | Humidity | Pressure | Rain* | Wind** | Luminosity | Snow |
|---|---|---|---|---|---|---|---|
| 1777764602 | 9.44° C | 64% | 1018.6 hPa | 0 mm | - | 0 W/m² | - |
| 1777764303 | 10° C | 63% | 1018.6 hPa | 0 mm | - | 0 W/m² | - |
| 1777764008 | 10.56° C | 60% | 1018.4 hPa | 0 mm | - | 0 W/m² | - |
| 1777763706 | 11.11° C | 56% | 1018.3 hPa | 0 mm | - | 0 W/m² | - |
| 1777763406 | 11.67° C | 52% | 1018.3 hPa | 0 mm | - | 0 W/m² | - |
| 1777763106 | 12.22° C | 50% | 1018.1 hPa | 0 mm | - | 0 W/m² | - |
| 1777762803 | 11.67° C | 54% | 1018.2 hPa | 0 mm | - | 0 W/m² | - |
| 1777762504 | 11.67° C | 53% | 1018.3 hPa | 0 mm | - | 0 W/m² | - |
| 1777762203 | 12.22° C | 50% | 1018.2 hPa | 0 mm | - | 0 W/m² | - |
| 1777761905 | 12.22° C | 48% | 1018.2 hPa | 0 mm | - | 0 W/m² | - |
| 1777761603 | 12.22° C | 48% | 1018.3 hPa | 0 mm | - | 0 W/m² | - |
| 1777761307 | 11.67° C | 52% | 1018.3 hPa | 0 mm | - | 0 W/m² | - |
| 1777761003 | 11.67° C | 52% | 1018.5 hPa | 0 mm | - | 0 W/m² | - |
| 1777760704 | 11.67° C | 52% | 1018.5 hPa | 0 mm | - | 0 W/m² | - |
| 1777760408 | 11.67° C | 51% | 1018.4 hPa | 0 mm | - | 0 W/m² | - |
| 1777760106 | 11.67° C | 53% | 1018.6 hPa | 0 mm | - | 0 W/m² | - |
| 1777759804 | 11.11° C | 57% | 1018.6 hPa | 0 mm | - | 0 W/m² | - |
| 1777759508 | 11.11° C | 61% | 1018.7 hPa | 0 mm | - | 0 W/m² | - |
| 1777759219 | 10.56° C | 65% | 1018.8 hPa | 0 mm | - | 0 W/m² | - |
| 1777758907 | 10.56° C | 66% | 1018.8 hPa | 0 mm | - | 0 W/m² | - |
| 1777758603 | 11.11° C | 63% | 1018.7 hPa | 0 mm | - | 0 W/m² | - |
| 1777758309 | 11.11° C | 62% | 1018.6 hPa | 0 mm | - | 0 W/m² | - |
| 1777758002 | 12.78° C | 50% | 1018.3 hPa | 0 mm | - | 0 W/m² | - |
| 1777757708 | 12.78° C | 49% | 1018.3 hPa | 0 mm | - | 0 W/m² | - |
| 1777757402 | 13.33° C | 48% | 1018.2 hPa | 0 mm | - | 0 W/m² | - |
* Rain latest hour (hover to see other rain measurements)
** Current wind speed in m/s (hover to see current wind gust speed)